Time;durP1;ratioP1;P1;durP2;ratioP2;P2;SDS_P1;SDS_P2;PMS_P1;PMS_P2;Temp;Humidity;BMP_temperature;BMP_pressure;BME280_temperature;BME280_humidity;BME280_pressure;Samples;Min_cycle;Max_cycle;Signal;HPM_P1;HPM_P2
2024/02/20 00:01:15;;;;;;;20.70;11.50;;;;;;;-0.98;100.00;101916.66;106214;1257;60435;-82
2024/02/20 00:03:43;;;;;;;22.60;10.20;;;;;;;-0.96;100.00;101913.95;106225;1257;71983;-83
2024/02/20 00:06:11;;;;;;;22.20;11.70;;;;;;;-1.01;100.00;101912.64;106391;1257;67275;-84
2024/02/20 00:08:39;;;;;;;17.30;9.80;;;;;;;-1.07;100.00;101911.91;106102;1259;72764;-84
2024/02/20 00:11:07;;;;;;;18.10;9.70;;;;;;;-1.14;100.00;101911.73;106339;1260;60355;-82
2024/02/20 00:13:36;;;;;;;20.10;8.80;;;;;;;-1.13;100.00;101906.86;106230;1256;60459;-82
2024/02/20 00:16:04;;;;;;;18.80;9.10;;;;;;;-1.18;100.00;101907.36;106267;1255;73840;-83
2024/02/20 00:18:32;;;;;;;26.20;11.30;;;;;;;-1.04;100.00;101908.88;106150;1257;68854;-83
2024/02/20 00:21:00;;;;;;;18.50;8.50;;;;;;;-1.07;100.00;101906.00;106296;1257;73088;-83
2024/02/20 00:23:28;;;;;;;18.20;9.40;;;;;;;-1.19;100.00;101905.83;106325;1256;60482;-83
2024/02/20 00:25:56;;;;;;;19.90;9.90;;;;;;;-1.26;100.00;101901.80;106206;1260;60427;-81
2024/02/20 00:28:23;;;;;;;16.20;9.30;;;;;;;-1.37;100.00;101903.68;106211;1258;73892;-82
2024/02/20 00:30:51;;;;;;;19.80;10.30;;;;;;;-1.34;100.00;101904.64;106203;1262;67350;-83
2024/02/20 00:33:19;;;;;;;21.60;9.40;;;;;;;-1.31;100.00;101900.39;106454;1256;72714;-82
2024/02/20 00:35:46;;;;;;;20.40;9.50;;;;;;;-1.36;100.00;101897.98;106238;1257;60705;-81
2024/02/20 00:38:14;;;;;;;19.50;10.50;;;;;;;-1.38;100.00;101897.42;106188;1257;60474;-82
2024/02/20 00:40:42;;;;;;;20.00;9.30;;;;;;;-1.37;100.00;101895.67;106274;1259;74349;-83
2024/02/20 00:43:10;;;;;;;20.00;9.40;;;;;;;-1.34;100.00;101893.52;106297;1257;68405;-83
2024/02/20 00:45:37;;;;;;;20.20;9.40;;;;;;;-1.52;100.00;101891.16;106223;1260;70246;-83
2024/02/20 00:48:06;;;;;;;15.30;8.90;;;;;;;-1.55;100.00;101887.27;106258;1259;60357;-83
2024/02/20 00:50:34;;;;;;;18.40;9.30;;;;;;;-1.39;100.00;101885.63;106205;1256;60388;-83
2024/02/20 00:53:02;;;;;;;22.30;10.60;;;;;;;-1.42;100.00;101883.17;106283;1256;73192;-83
2024/02/20 00:55:30;;;;;;;20.80;9.30;;;;;;;-1.40;100.00;101881.09;106275;1255;68375;-83
2024/02/20 00:57:59;;;;;;;22.90;10.40;;;;;;;-1.44;100.00;101872.51;106142;1257;75318;-83
2024/02/20 01:00:28;;;;;;;22.90;10.60;;;;;;;-1.46;100.00;101871.20;106331;1262;60539;-83
2024/02/20 01:02:58;;;;;;;19.30;10.50;;;;;;;-1.42;100.00;101867.61;106189;1262;60437;-83
2024/02/20 01:05:26;;;;;;;24.40;10.60;;;;;;;-1.49;100.00;101866.02;106197;1262;73922;-83
2024/02/20 01:07:55;;;;;;;25.80;11.40;;;;;;;-1.54;100.00;101864.98;106859;1259;67416;-83
2024/02/20 01:10:23;;;;;;;27.50;13.50;;;;;;;-1.61;100.00;101866.91;106208;1256;72308;-81
2024/02/20 01:12:50;;;;;;;31.20;13.80;;;;;;;-1.66;100.00;101866.27;106188;1256;61838;-82
2024/02/20 01:15:18;;;;;;;27.90;13.50;;;;;;;-1.75;100.00;101863.05;106180;1257;60469;-83
2024/02/20 01:17:46;;;;;;;38.80;18.70;;;;;;;-1.69;100.00;101865.84;106252;1262;73856;-82
2024/02/20 01:20:14;;;;;;;37.40;17.20;;;;;;;-1.69;100.00;101865.39;106423;1257;67191;-82
2024/02/20 01:22:42;;;;;;;32.60;14.70;;;;;;;-1.69;100.00;101856.23;106138;1256;70675;-81
2024/02/20 01:25:10;;;;;;;26.60;13.60;;;;;;;-1.75;100.00;101854.34;106236;1256;60915;-83
2024/02/20 01:27:37;;;;;;;32.80;15.90;;;;;;;-1.86;100.00;101847.96;106195;1257;60450;-81
2024/02/20 01:30:07;;;;;;;35.40;16.70;;;;;;;-1.90;100.00;101843.92;106552;1257;73819;-81
2024/02/20 01:32:35;;;;;;;40.40;19.60;;;;;;;-1.93;100.00;101841.21;106149;1262;68332;-81
2024/02/20 01:35:05;;;;;;;42.50;20.10;;;;;;;-1.84;100.00;101843.34;106230;1257;71470;-83
2024/02/20 01:37:32;;;;;;;40.10;18.40;;;;;;;-1.82;100.00;101840.30;106102;1256;233740;-81
2024/02/20 01:40:01;;;;;;;40.50;17.90;;;;;;;-1.85;100.00;101840.02;106241;1257;60960;-81
2024/02/20 01:42:28;;;;;;;38.30;17.60;;;;;;;-1.85;100.00;101835.61;106311;1257;72680;-81
2024/02/20 01:44:56;;;;;;;37.20;17.00;;;;;;;-1.85;100.00;101837.14;106097;1257;66377;-81
2024/02/20 01:47:24;;;;;;;31.30;16.30;;;;;;;-1.78;100.00;101832.66;106274;1257;71587;-81
2024/02/20 01:49:52;;;;;;;34.90;15.70;;;;;;;-1.81;100.00;101831.23;106270;1255;60813;-81
2024/02/20 01:52:20;;;;;;;32.30;15.00;;;;;;;-1.85;100.00;101829.87;106381;1260;60553;-83
2024/02/20 01:54:48;;;;;;;38.60;17.20;;;;;;;-1.90;100.00;101826.77;106139;1257;73812;-83
2024/02/20 01:57:17;;;;;;;40.10;18.90;;;;;;;-1.90;100.00;101836.50;106355;1261;67221;-83
2024/02/20 01:59:45;;;;;;;46.30;22.10;;;;;;;-1.86;100.00;101838.17;106230;1256;71162;-83
2024/02/20 02:02:12;;;;;;;33.00;16.20;;;;;;;-1.91;100.00;101836.55;106192;1259;60347;-82
2024/02/20 02:04:40;;;;;;;37.80;15.70;;;;;;;-1.98;100.00;101835.88;106470;1256;60612;-83
2024/02/20 02:07:08;;;;;;;32.10;15.40;;;;;;;-1.98;100.00;101833.05;106328;1256;73875;-83
2024/02/20 02:09:36;;;;;;;32.30;15.60;;;;;;;-1.89;100.00;101828.16;106252;1259;66854;-83
2024/02/20 02:12:04;;;;;;;31.50;15.70;;;;;;;-1.95;100.00;101829.80;106215;1259;72455;-81
2024/02/20 02:14:32;;;;;;;27.40;13.00;;;;;;;-1.98;100.00;101830.54;106271;1262;60319;-81
2024/02/20 02:17:00;;;;;;;28.60;13.70;;;;;;;-2.07;100.00;101836.00;106580;1256;60128;-81
2024/02/20 02:19:27;;;;;;;26.00;12.70;;;;;;;-2.12;100.00;101836.98;106279;1256;72684;-83
2024/02/20 02:21:55;;;;;;;30.50;13.70;;;;;;;-2.16;100.00;101831.15;106150;1261;68427;-80
2024/02/20 02:24:23;;;;;;;25.60;13.00;;;;;;;-2.16;100.00;101831.52;106240;1258;72713;-83
2024/02/20 02:26:50;;;;;;;26.60;12.60;;;;;;;-2.20;100.00;101828.13;106354;1256;61112;-83
2024/02/20 02:29:18;;;;;;;24.80;12.60;;;;;;;-2.18;100.00;101831.35;106429;1262;60339;-81
2024/02/20 02:31:46;;;;;;;26.20;13.30;;;;;;;-2.18;100.00;101827.23;106176;1258;73940;-84
2024/02/20 02:34:13;;;;;;;22.90;12.20;;;;;;;-2.11;100.00;101826.25;106270;1256;68366;-84
2024/02/20 02:36:41;;;;;;;23.70;10.50;;;;;;;-2.12;100.00;101828.15;106231;1257;72757;-84
2024/02/20 02:39:09;;;;;;;25.70;11.40;;;;;;;-2.11;100.00;101825.83;106480;1256;60518;-82
2024/02/20 02:41:37;;;;;;;22.80;11.20;;;;;;;-2.06;100.00;101834.20;106117;1259;60317;-83
2024/02/20 02:44:06;;;;;;;32.90;13.60;;;;;;;-2.02;100.00;101832.02;106367;1256;72587;-84
2024/02/20 02:46:34;;;;;;;30.30;11.20;;;;;;;-2.00;100.00;101837.86;106165;1259;67379;-83
2024/02/20 02:49:02;;;;;;;26.10;11.80;;;;;;;-2.02;100.00;101840.54;106194;1256;71477;-83
2024/02/20 02:51:30;;;;;;;24.00;12.60;;;;;;;-1.95;100.00;101838.42;106314;1256;60500;-83
2024/02/20 02:53:57;;;;;;;24.70;12.80;;;;;;;-1.94;100.00;101839.00;106331;1256;60087;-83
2024/02/20 02:56:25;;;;;;;29.00;14.10;;;;;;;-1.93;100.00;101839.27;106280;1257;72640;-81
2024/02/20 02:58:53;;;;;;;35.10;16.50;;;;;;;-1.98;100.00;101841.09;106238;1259;67398;-82
2024/02/20 03:01:22;;;;;;;32.90;16.70;;;;;;;-2.05;100.00;101843.39;106479;1261;72473;-83
2024/02/20 03:03:49;;;;;;;28.70;14.20;;;;;;;-2.11;100.00;101842.99;106334;1256;62170;-83
2024/02/20 03:06:17;;;;;;;32.40;15.70;;;;;;;-2.04;100.00;101845.23;106182;1256;60546;-83
2024/02/20 03:08:47;;;;;;;30.90;15.40;;;;;;;-2.05;100.00;101844.54;106243;1256;72658;-81
2024/02/20 03:11:16;;;;;;;30.60;15.90;;;;;;;-2.08;100.00;101844.64;106107;1256;67292;-81
2024/02/20 03:13:45;;;;;;;30.10;15.10;;;;;;;-2.17;100.00;101841.23;106371;1257;71806;-83
2024/02/20 03:16:13;;;;;;;32.60;17.10;;;;;;;-2.11;100.00;101841.89;106154;1258;60518;-83
2024/02/20 03:18:42;;;;;;;37.80;17.60;;;;;;;-2.09;100.00;101846.55;106289;1257;60384;-83
2024/02/20 03:21:10;;;;;;;33.90;18.90;;;;;;;-2.18;100.00;101848.48;106292;1260;73846;-83
2024/02/20 03:23:38;;;;;;;35.20;16.80;;;;;;;-2.24;100.00;101843.95;106559;1255;67620;-83
2024/02/20 03:26:06;;;;;;;31.80;16.40;;;;;;;-2.30;100.00;101846.55;106240;1260;72703;-83
2024/02/20 03:28:34;;;;;;;38.30;17.30;;;;;;;-2.22;100.00;101848.44;106323;1256;60486;-83
2024/02/20 03:31:02;;;;;;;27.90;14.40;;;;;;;-2.16;100.00;101847.59;106295;1256;60887;-81
2024/02/20 03:33:33;;;;;;;32.90;15.20;;;;;;;-2.14;100.00;101846.73;106239;1256;73852;-81
2024/02/20 03:36:04;;;;;;;31.20;15.10;;;;;;;-2.17;100.00;101851.60;106363;1259;68834;-82
2024/02/20 03:38:32;;;;;;;29.80;14.30;;;;;;;-2.19;100.00;101851.66;106100;1255;72223;-83
2024/02/20 03:41:00;;;;;;;30.20;14.90;;;;;;;-2.18;100.00;101847.80;106039;1256;61635;-81
2024/02/20 03:43:28;;;;;;;38.70;20.30;;;;;;;-2.13;100.00;101849.98;105930;1256;60524;-83
2024/02/20 03:45:56;;;;;;;35.60;18.30;;;;;;;-2.22;100.00;101849.14;106101;1262;73839;-83
2024/02/20 03:48:24;;;;;;;29.00;15.80;;;;;;;-2.26;100.00;101851.70;106167;1261;67180;-83
2024/02/20 03:50:52;;;;;;;35.50;18.20;;;;;;;-2.31;100.00;101853.68;106232;1256;70710;-83
2024/02/20 03:53:19;;;;;;;29.60;13.70;;;;;;;-2.33;100.00;101855.98;106232;1262;60480;-81
2024/02/20 03:55:48;;;;;;;32.00;15.40;;;;;;;-2.44;100.00;101857.13;106213;1256;59784;-81
2024/02/20 03:58:16;;;;;;;33.60;17.10;;;;;;;-2.37;100.00;101851.17;106736;1257;73855;-81
2024/02/20 04:00:44;;;;;;;30.00;16.10;;;;;;;-2.49;100.00;101851.02;106183;1257;67718;-83
2024/02/20 04:03:12;;;;;;;28.80;15.00;;;;;;;-2.53;100.00;101846.10;106136;1261;71725;-80
2024/02/20 04:05:40;;;;;;;27.50;13.90;;;;;;;-2.57;100.00;101848.33;106356;1256;61752;-84
2024/02/20 04:08:07;;;;;;;28.90;13.90;;;;;;;-2.50;100.00;101847.63;106264;1256;60354;-82
2024/02/20 04:10:35;;;;;;;25.50;14.30;;;;;;;-2.45;100.00;101848.10;106262;1256;73846;-82
2024/02/20 04:13:03;;;;;;;26.80;13.60;;;;;;;-2.46;100.00;101847.32;106338;1256;67438;-83
2024/02/20 04:15:32;;;;;;;22.90;12.50;;;;;;;-2.55;100.00;101845.80;106151;1256;72514;-82
2024/02/20 04:17:59;;;;;;;24.60;11.40;;;;;;;-2.67;100.00;101843.73;106320;1262;60414;-80
2024/02/20 04:20:28;;;;;;;23.10;11.80;;;;;;;-2.57;100.00;101846.76;106059;1259;60971;-82
2024/02/20 04:22:55;;;;;;;22.00;11.10;;;;;;;-2.55;100.00;101850.67;106399;1259;73836;-80
2024/02/20 04:25:23;;;;;;;23.90;10.90;;;;;;;-2.59;100.00;101843.53;106074;1256;68398;-80
2024/02/20 04:27:51;;;;;;;22.60;10.90;;;;;;;-2.71;100.00;101841.16;106278;1256;72675;-82
2024/02/20 04:30:20;;;;;;;24.20;11.00;;;;;;;-2.68;100.00;101841.05;106016;1259;60543;-83
2024/02/20 04:32:47;;;;;;;21.90;10.40;;;;;;;-2.65;100.00;101840.34;106022;1263;60407;-82
2024/02/20 04:35:15;;;;;;;22.00;10.60;;;;;;;-2.70;100.00;101836.95;106337;1257;73637;-82
2024/02/20 04:37:44;;;;;;;24.10;10.90;;;;;;;-2.64;100.00;101841.73;106421;1259;68598;-80
2024/02/20 04:40:12;;;;;;;23.10;10.20;;;;;;;-2.62;100.00;101836.61;105989;1256;72715;-80
2024/02/20 04:42:39;;;;;;;20.40;10.90;;;;;;;-2.58;100.00;101834.11;105920;1259;60483;-80
2024/02/20 04:45:07;;;;;;;21.60;10.20;;;;;;;-2.62;100.00;101833.79;106667;1256;60552;-80
2024/02/20 04:47:35;;;;;;;23.70;10.60;;;;;;;-2.68;100.00;101833.72;106025;1259;73821;-81
2024/02/20 04:50:04;;;;;;;20.30;9.30;;;;;;;-2.70;100.00;101828.98;106014;1259;67296;-80
2024/02/20 04:52:32;;;;;;;18.60;9.30;;;;;;;-2.74;100.00;101834.52;106175;1261;72029;-80
2024/02/20 04:55:02;;;;;;;16.00;8.10;;;;;;;-2.72;100.00;101829.72;105965;1262;60522;-84
2024/02/20 04:57:31;;;;;;;17.40;8.00;;;;;;;-2.69;100.00;101827.39;106542;1262;60412;-81
2024/02/20 04:59:58;;;;;;;14.60;7.50;;;;;;;-2.58;100.00;101827.32;106217;1256;73822;-83
2024/02/20 05:02:26;;;;;;;15.70;7.20;;;;;;;-2.47;100.00;101830.15;106059;1256;68359;-84
2024/02/20 05:04:54;;;;;;;15.90;6.70;;;;;;;-2.43;100.00;101829.01;106189;1259;72704;-82
2024/02/20 05:07:23;;;;;;;11.00;5.60;;;;;;;-2.27;100.00;101827.33;106504;1256;60431;-82
2024/02/20 05:09:51;;;;;;;10.70;5.70;;;;;;;-2.16;100.00;101827.47;106115;1259;60576;-82
2024/02/20 05:12:19;;;;;;;11.80;5.00;;;;;;;-1.97;100.00;101823.98;106556;1256;72631;-84
2024/02/20 05:14:47;;;;;;;9.70;5.30;;;;;;;-1.87;100.00;101827.39;106312;1257;67564;-84
2024/02/20 05:17:15;;;;;;;9.50;5.50;;;;;;;-1.70;100.00;101823.77;106302;1259;72740;-82
2024/02/20 05:19:43;;;;;;;11.10;5.30;;;;;;;-1.55;100.00;101826.07;106345;1256;60526;-81
2024/02/20 05:22:12;;;;;;;12.30;5.90;;;;;;;-1.39;100.00;101830.30;106208;1256;60317;-84
2024/02/20 05:24:42;;;;;;;12.00;5.80;;;;;;;-1.31;100.00;101823.88;106213;1256;73732;-84
2024/02/20 05:27:10;;;;;;;12.90;5.80;;;;;;;-1.14;100.00;101826.12;106175;1257;69354;-84
2024/02/20 05:29:38;;;;;;;10.60;5.20;;;;;;;-0.96;100.00;101830.16;106305;1256;72601;-82
2024/02/20 05:32:06;;;;;;;10.90;5.30;;;;;;;-0.82;100.00;101831.15;106164;1257;60479;-84
2024/02/20 05:34:33;;;;;;;12.30;4.90;;;;;;;-0.58;100.00;101833.52;106173;1256;60418;-84
2024/02/20 05:37:01;;;;;;;13.00;6.00;;;;;;;-0.39;100.00;101832.94;106146;1257;73852;-84
2024/02/20 05:39:29;;;;;;;10.30;5.60;;;;;;;-0.15;100.00;101840.69;106126;1260;68857;-84
2024/02/20 05:41:57;;;;;;;10.20;5.00;;;;;;;0.02;100.00;101838.22;106422;1257;73064;-84
2024/02/20 05:44:25;;;;;;;12.40;5.10;;;;;;;0.13;100.00;101839.64;106192;1262;61605;-84
2024/02/20 05:46:52;;;;;;;13.20;5.60;;;;;;;0.24;100.00;101838.90;106074;1256;60347;-82
2024/02/20 05:49:20;;;;;;;12.30;5.50;;;;;;;0.41;100.00;101840.27;106000;1257;74014;-83
2024/02/20 05:51:48;;;;;;;10.40;5.50;;;;;;;0.60;100.00;101839.66;106223;1256;68978;-85
2024/02/20 05:54:15;;;;;;;11.80;5.80;;;;;;;0.76;100.00;101836.79;106163;1259;71073;-84
2024/02/20 05:56:43;;;;;;;10.70;5.60;;;;;;;0.94;100.00;101842.12;106175;1256;60486;-82
2024/02/20 05:59:11;;;;;;;12.90;5.70;;;;;;;1.09;100.00;101845.55;106206;1256;60358;-84
2024/02/20 06:01:39;;;;;;;11.20;5.40;;;;;;;1.26;100.00;101848.05;106089;1259;74333;-84
2024/02/20 06:04:07;;;;;;;12.00;5.50;;;;;;;1.40;100.00;101848.76;106125;1256;68590;-84
2024/02/20 06:06:35;;;;;;;12.50;5.70;;;;;;;1.55;100.00;101844.50;106152;1262;72553;-83
2024/02/20 06:09:04;;;;;;;10.70;5.50;;;;;;;1.65;100.00;101845.27;106164;1256;60466;-82
2024/02/20 06:11:31;;;;;;;10.80;6.10;;;;;;;1.80;100.00;101844.79;106048;1256;60356;-82
2024/02/20 06:13:59;;;;;;;9.30;5.20;;;;;;;1.83;100.00;101840.06;106539;1256;72407;-85
2024/02/20 06:16:27;;;;;;;10.90;5.60;;;;;;;1.95;100.00;101837.04;106178;1256;67086;-84
2024/02/20 06:18:55;;;;;;;10.80;5.60;;;;;;;2.09;100.00;101836.11;106275;1262;72703;-85
2024/02/20 06:21:23;;;;;;;9.90;5.80;;;;;;;2.20;100.00;101833.46;106168;1257;60428;-82
2024/02/20 06:23:51;;;;;;;10.00;5.60;;;;;;;2.22;100.00;101834.61;106105;1256;60636;-84
2024/02/20 06:26:19;;;;;;;11.20;5.60;;;;;;;2.23;100.00;101838.03;106112;1256;73873;-82
2024/02/20 06:28:47;;;;;;;9.90;5.40;;;;;;;2.27;100.00;101842.54;106070;1262;67475;-84
2024/02/20 06:31:15;;;;;;;12.90;5.80;;;;;;;2.35;100.00;101840.52;106075;1256;72634;-83
2024/02/20 06:33:43;;;;;;;9.70;4.90;;;;;;;2.37;100.00;101841.67;106341;1256;60490;-83
2024/02/20 06:36:11;;;;;;;8.80;4.90;;;;;;;2.34;100.00;101842.83;106101;1257;60438;-83
2024/02/20 06:38:39;;;;;;;8.80;5.10;;;;;;;2.33;100.00;101840.71;106079;1256;72667;-85
2024/02/20 06:41:07;;;;;;;11.80;5.80;;;;;;;2.38;100.00;101845.20;105998;1262;67752;-83
2024/02/20 06:43:37;;;;;;;9.90;4.90;;;;;;;2.61;99.83;101843.40;106163;1258;72433;-83
2024/02/20 06:46:05;;;;;;;14.90;5.70;;;;;;;2.70;98.88;101842.24;106019;1259;60559;-85
2024/02/20 06:48:33;;;;;;;8.80;4.60;;;;;;;2.79;97.29;101843.45;106043;1256;60349;-85
2024/02/20 06:51:03;;;;;;;9.30;5.20;;;;;;;2.85;95.85;101838.39;105910;1256;71623;-83
2024/02/20 06:53:30;;;;;;;8.50;4.80;;;;;;;2.88;95.11;101834.96;105972;1261;66240;-83
2024/02/20 06:55:58;;;;;;;7.70;4.20;;;;;;;2.97;94.25;101835.26;105979;1261;72735;-80
2024/02/20 06:58:27;;;;;;;9.30;5.10;;;;;;;3.02;91.86;101836.76;106056;1262;60452;-82
2024/02/20 07:00:55;;;;;;;8.00;4.50;;;;;;;3.13;89.92;101833.55;106210;1257;60362;-86
2024/02/20 07:03:23;;;;;;;10.30;4.70;;;;;;;3.18;89.10;101839.01;105950;1256;73875;-84
2024/02/20 07:05:50;;;;;;;8.80;4.60;;;;;;;3.26;88.75;101839.31;105961;1262;67481;-84
2024/02/20 07:08:18;;;;;;;8.10;4.20;;;;;;;3.42;88.35;101835.81;105972;1256;73178;-84
2024/02/20 07:10:46;;;;;;;10.60;4.70;;;;;;;3.56;85.82;101834.30;106141;1256;60671;-84
2024/02/20 07:13:14;;;;;;;8.90;4.70;;;;;;;3.69;84.33;101830.09;106147;1256;60434;-82
2024/02/20 07:15:42;;;;;;;9.30;3.90;;;;;;;3.81;80.30;101828.29;106105;1256;71945;-82
2024/02/20 07:18:10;;;;;;;5.90;3.50;;;;;;;3.88;77.31;101827.48;106079;1256;67145;-84
2024/02/20 07:20:37;;;;;;;10.10;5.00;;;;;;;3.98;73.72;101829.48;105915;1256;72744;-82
2024/02/20 07:23:05;;;;;;;6.00;4.60;;;;;;;4.09;72.75;101827.73;106000;1256;61118;-84
2024/02/20 07:25:33;;;;;;;8.00;3.80;;;;;;;4.07;71.18;101826.64;106019;1261;60618;-84
2024/02/20 07:28:01;;;;;;;7.30;4.00;;;;;;;4.10;67.44;101826.24;106159;1256;73912;-84
2024/02/20 07:30:30;;;;;;;6.80;4.20;;;;;;;4.17;64.19;101824.80;106028;1257;68211;-86
2024/02/20 07:32:58;;;;;;;5.60;3.30;;;;;;;4.12;63.72;101826.86;106130;1257;72718;-84
2024/02/20 07:35:27;;;;;;;5.60;3.20;;;;;;;4.05;61.72;101826.09;106258;1256;60506;-84
2024/02/20 07:37:55;;;;;;;9.60;3.40;;;;;;;4.05;61.36;101823.25;106231;1256;60507;-83
2024/02/20 07:40:23;;;;;;;6.80;4.10;;;;;;;4.10;59.39;101823.73;106195;1262;76619;-85
2024/02/20 07:42:51;;;;;;;5.00;3.00;;;;;;;4.11;58.30;101816.34;106232;1256;67775;-85
2024/02/20 07:45:19;;;;;;;4.30;2.80;;;;;;;4.10;58.29;101815.05;106129;1257;70379;-85
2024/02/20 07:47:46;;;;;;;7.90;3.70;;;;;;;4.15;57.89;101815.23;106270;1256;60587;-85
2024/02/20 07:50:14;;;;;;;6.70;4.30;;;;;;;4.25;57.81;101814.91;106051;1256;60482;-84
2024/02/20 07:52:42;;;;;;;6.20;3.50;;;;;;;4.27;57.05;101809.05;105963;1256;74785;-84
2024/02/20 07:55:12;;;;;;;5.90;2.70;;;;;;;4.30;56.50;101812.44;105917;1256;69464;-84
2024/02/20 07:57:40;;;;;;;5.80;2.70;;;;;;;4.38;55.51;101815.78;106073;1256;72582;-85
2024/02/20 08:00:11;;;;;;;4.90;2.90;;;;;;;4.49;54.50;101814.27;106132;1257;60520;-84
2024/02/20 08:02:40;;;;;;;7.30;3.70;;;;;;;4.61;54.42;101818.45;106019;1257;63475;-84
2024/02/20 08:05:09;;;;;;;5.20;2.60;;;;;;;4.65;54.35;101820.23;106089;1256;72465;-84
2024/02/20 08:07:38;;;;;;;5.80;2.90;;;;;;;4.81;53.63;101820.13;106261;1257;68931;-84
2024/02/20 08:10:08;;;;;;;4.30;2.70;;;;;;;4.95;51.53;101815.38;105973;1258;72752;-84
2024/02/20 08:12:41;;;;;;;6.10;3.90;;;;;;;5.04;51.88;101811.59;106085;1263;60565;-84
2024/02/20 08:15:09;;;;;;;7.80;4.00;;;;;;;5.22;51.30;101812.77;106098;1256;60621;-85
2024/02/20 08:17:36;;;;;;;5.90;4.40;;;;;;;5.38;50.30;101810.00;106023;1262;73855;-84
2024/02/20 08:20:05;;;;;;;5.30;3.20;;;;;;;5.46;49.68;101805.98;106056;1256;71822;-82
2024/02/20 08:22:33;;;;;;;5.40;2.70;;;;;;;5.46;48.55;101803.64;105972;1262;72451;-84
2024/02/20 08:25:01;;;;;;;5.70;2.70;;;;;;;5.48;47.24;101805.11;106026;1259;60300;-84
2024/02/20 08:27:29;;;;;;;4.70;2.70;;;;;;;5.44;47.78;101806.82;106120;1262;59820;-85
2024/02/20 08:29:56;;;;;;;4.60;3.20;;;;;;;5.51;47.82;101808.98;106073;1257;71975;-85
2024/02/20 08:32:24;;;;;;;8.00;5.10;;;;;;;5.64;48.62;101805.19;106045;1262;69206;-84
2024/02/20 08:34:52;;;;;;;9.10;6.30;;;;;;;5.60;48.13;101805.37;105982;1257;74846;-84
2024/02/20 08:37:20;;;;;;;11.50;6.70;;;;;;;5.65;48.67;101803.64;106134;1262;61412;-84
2024/02/20 08:39:48;;;;;;;10.80;5.70;;;;;;;5.84;48.73;101804.52;106087;1256;61576;-83
2024/02/20 08:42:19;;;;;;;6.10;3.70;;;;;;;5.97;48.66;101806.18;106129;1257;73964;-84
2024/02/20 08:44:47;;;;;;;5.50;3.40;;;;;;;6.04;47.98;101804.52;106340;1256;70464;-84
2024/02/20 08:47:15;;;;;;;8.10;4.80;;;;;;;6.05;47.27;101803.64;106116;1256;74985;-84
2024/02/20 08:49:42;;;;;;;7.70;5.00;;;;;;;6.11;46.83;101801.85;105995;1256;59332;-85
2024/02/20 08:52:10;;;;;;;16.90;10.20;;;;;;;6.12;46.40;101799.42;106038;1260;62126;-85
2024/02/20 08:54:38;;;;;;;14.20;8.60;;;;;;;6.12;45.40;101793.83;106148;1259;73658;-85
2024/02/20 08:57:06;;;;;;;11.30;6.20;;;;;;;6.09;45.80;101798.27;105959;1257;67935;-84
2024/02/20 08:59:33;;;;;;;7.20;5.00;;;;;;;6.12;45.54;101798.63;106077;1257;75280;-85
2024/02/20 09:02:03;;;;;;;9.00;5.60;;;;;;;6.14;46.03;101803.52;105969;1256;62092;-85
2024/02/20 09:04:31;;;;;;;12.80;6.00;;;;;;;6.22;46.46;101797.84;106046;1256;60372;-85
2024/02/20 09:06:59;;;;;;;9.50;5.90;;;;;;;6.27;46.14;101794.05;106051;1260;75517;-84
2024/02/20 09:09:28;;;;;;;7.60;4.80;;;;;;;6.30;45.60;101794.11;106064;1262;69804;-84
2024/02/20 09:11:56;;;;;;;8.30;4.60;;;;;;;6.26;45.68;101790.50;106040;1262;71507;-85
2024/02/20 09:14:28;;;;;;;8.70;4.20;;;;;;;6.24;45.68;101785.79;105982;1259;61431;-86
2024/02/20 09:16:56;;;;;;;5.90;3.80;;;;;;;6.21;45.08;101780.12;106245;1259;62018;-84
2024/02/20 09:19:23;;;;;;;6.30;3.60;;;;;;;6.20;44.78;101778.02;106102;1256;74338;-84
2024/02/20 09:21:51;;;;;;;8.80;4.00;;;;;;;6.22;45.86;101778.45;106078;1256;68094;-84
2024/02/20 09:24:19;;;;;;;5.80;3.40;;;;;;;6.32;46.04;101784.20;106196;1256;74957;-84
2024/02/20 09:26:47;;;;;;;6.50;4.20;;;;;;;6.45;45.02;101786.02;105988;1260;60543;-84
2024/02/20 09:29:14;;;;;;;5.80;3.50;;;;;;;6.52;44.67;101789.73;106275;1256;61974;-84
2024/02/20 09:31:42;;;;;;;6.30;3.80;;;;;;;6.57;43.59;101790.46;106037;1262;76071;-84
2024/02/20 09:34:10;;;;;;;9.10;4.10;;;;;;;6.60;43.22;101790.06;106096;1257;69843;-85
2024/02/20 09:36:38;;;;;;;5.00;3.60;;;;;;;6.65;43.29;101780.55;106107;1257;72433;-83
2024/02/20 09:39:06;;;;;;;8.60;4.30;;;;;;;6.68;43.52;101777.63;106046;1256;60647;-85
2024/02/20 09:41:33;;;;;;;7.00;3.90;;;;;;;6.69;43.41;101776.76;106172;1256;62097;-83
2024/02/20 09:44:01;;;;;;;9.50;4.60;;;;;;;6.69;43.81;101774.02;106102;1256;74651;-83
2024/02/20 09:46:29;;;;;;;8.80;4.10;;;;;;;6.72;44.22;101775.21;106039;1261;68471;-83
2024/02/20 09:48:57;;;;;;;8.20;4.40;;;;;;;6.69;44.17;101774.54;105964;1257;74977;-83
2024/02/20 09:51:29;;;;;;;17.70;8.20;;;;;;;6.66;44.90;101768.15;106018;1256;61561;-83
2024/02/20 09:53:57;;;;;;;7.40;4.40;;;;;;;6.58;45.53;101767.14;106257;1265;60310;-84
2024/02/20 09:56:25;;;;;;;12.20;7.20;;;;;;;6.51;45.30;101759.84;106092;1256;74855;-85
2024/02/20 09:58:53;;;;;;;12.90;7.40;;;;;;;6.51;45.61;101757.79;106098;1262;70930;-84
2024/02/20 10:01:23;;;;;;;9.70;5.90;;;;;;;6.57;45.04;101756.35;106032;1256;74904;-84
2024/02/20 10:03:51;;;;;;;7.60;4.80;;;;;;;6.57;44.92;101752.77;106419;1257;60529;-84
2024/02/20 10:06:19;;;;;;;12.20;7.90;;;;;;;6.45;45.38;101753.33;105961;1256;62333;-83
2024/02/20 10:08:51;;;;;;;10.90;5.50;;;;;;;6.51;45.64;101755.16;106182;1260;76356;-85
2024/02/20 10:11:18;;;;;;;7.30;4.50;;;;;;;6.56;45.28;101758.67;106066;1257;68403;-83
2024/02/20 10:13:47;;;;;;;13.20;6.90;;;;;;;6.62;44.87;101750.17;106092;1260;74747;-83
2024/02/20 10:16:16;;;;;;;9.10;5.60;;;;;;;6.62;44.42;101747.23;106059;1260;60546;-83
2024/02/20 10:18:45;;;;;;;9.30;5.70;;;;;;;6.59;44.93;101744.57;106200;1256;60613;-83
2024/02/20 10:21:13;;;;;;;9.00;4.70;;;;;;;6.47;44.85;101743.41;105978;1256;76058;-84
2024/02/20 10:23:41;;;;;;;6.00;4.10;;;;;;;6.39;44.39;101741.84;106219;1257;68398;-84
2024/02/20 10:26:11;;;;;;;7.20;4.20;;;;;;;6.30;44.52;101746.91;106250;1256;72971;-84
2024/02/20 10:28:39;;;;;;;8.00;4.30;;;;;;;6.19;44.75;101738.79;106269;1259;60439;-84
2024/02/20 10:31:07;;;;;;;8.40;4.50;;;;;;;6.15;44.96;101742.34;106071;1257;60940;-85
2024/02/20 10:33:35;;;;;;;8.70;3.90;;;;;;;6.22;44.86;101742.25;106160;1260;76090;-84
2024/02/20 10:36:06;;;;;;;8.90;5.90;;;;;;;6.17;44.91;101746.33;106463;1262;67979;-83
2024/02/20 10:38:34;;;;;;;9.60;6.90;;;;;;;6.05;44.95;101742.81;106509;1259;74649;-84
2024/02/20 10:41:01;;;;;;;7.10;5.70;;;;;;;5.99;45.50;101737.83;106434;1257;60544;-83
2024/02/20 10:43:29;;;;;;;8.00;4.60;;;;;;;5.97;45.70;101732.96;107215;1257;61246;-86
2024/02/20 10:45:57;;;;;;;9.60;6.40;;;;;;;6.00;45.42;101733.18;105941;1257;74559;-86
2024/02/20 10:48:28;;;;;;;8.20;5.20;;;;;;;5.85;45.41;101731.48;106367;1262;70108;-85
2024/02/20 10:50:56;;;;;;;11.10;6.30;;;;;;;5.78;46.26;101731.77;106564;1259;72416;-85
2024/02/20 10:53:25;;;;;;;6.40;4.30;;;;;;;5.77;46.59;101727.19;106203;1254;61511;-82
2024/02/20 10:55:52;;;;;;;14.10;7.60;;;;;;;5.73;46.47;101725.73;106220;1256;60406;-85
2024/02/20 10:58:20;;;;;;;10.70;7.00;;;;;;;5.68;46.65;101723.77;106100;1257;72689;-84
2024/02/20 11:00:49;;;;;;;7.50;4.20;;;;;;;5.65;46.85;101721.15;106072;1262;68594;-84
2024/02/20 11:03:17;;;;;;;8.30;4.90;;;;;;;5.61;46.73;101717.67;106115;1259;73505;-83
2024/02/20 11:05:45;;;;;;;7.40;4.40;;;;;;;5.64;46.70;101716.27;106091;1256;60547;-84
2024/02/20 11:08:13;;;;;;;11.50;6.30;;;;;;;5.65;46.34;101716.31;106240;1269;62306;-83
2024/02/20 11:10:42;;;;;;;15.30;7.80;;;;;;;5.66;46.76;101716.68;106211;1257;73940;-83
2024/02/20 11:13:27;;;;;;;8.00;6.10;;;;;;;5.65;46.78;101713.89;106018;1261;70981;-83